createdAt,value
2019-05-13T00:00:34.078Z,9.15
2019-05-13T00:03:03.623Z,5.17
2019-05-13T00:05:33.981Z,7.62
2019-05-13T00:08:03.429Z,5.87
2019-05-13T00:10:34.723Z,6.72
2019-05-13T00:13:04.476Z,6.37
2019-05-13T00:15:34.135Z,5.58
2019-05-13T00:18:03.963Z,6.42
2019-05-13T00:20:33.859Z,3.77
2019-05-13T00:23:03.882Z,5.00
2019-05-13T00:25:33.913Z,5.20
2019-05-13T00:28:04.058Z,5.75
2019-05-13T00:30:34.461Z,7.33
2019-05-13T00:33:03.722Z,7.95
2019-05-13T00:35:33.921Z,5.12
2019-05-13T00:38:03.860Z,7.67
2019-05-13T00:40:33.870Z,4.55
2019-05-13T00:43:03.917Z,4.92
2019-05-13T00:45:33.899Z,6.05
2019-05-13T00:48:04.520Z,8.33
2019-05-13T00:50:34.363Z,7.33
2019-05-13T00:53:04.387Z,5.22
2019-05-13T00:55:34.567Z,5.80
2019-05-13T00:58:04.791Z,5.47
2019-05-13T01:00:34.359Z,5.65
2019-05-13T01:03:04.001Z,6.47
2019-05-13T01:05:34.017Z,7.67
2019-05-13T01:08:04.224Z,8.18
2019-05-13T01:10:34.818Z,5.17
2019-05-13T01:13:04.750Z,4.75
2019-05-13T01:15:34.517Z,7.72
2019-05-13T01:18:03.922Z,8.08
2019-05-13T01:20:34.405Z,6.12
2019-05-13T01:23:03.960Z,5.00
2019-05-13T01:25:34.326Z,7.62
2019-05-13T01:28:04.481Z,7.37
2019-05-13T01:30:34.795Z,4.65
2019-05-13T01:33:04.343Z,6.10
2019-05-13T01:35:34.257Z,6.25
2019-05-13T01:38:04.598Z,6.75
2019-05-13T01:40:34.904Z,6.45
2019-05-13T01:43:04.030Z,10.20
2019-05-13T01:45:33.904Z,6.42
2019-05-13T01:48:07.065Z,8.48
2019-05-13T01:50:34.075Z,8.15
2019-05-13T01:53:04.266Z,9.18
2019-05-13T01:55:33.995Z,7.03
2019-05-13T01:58:04.241Z,6.10
2019-05-13T02:00:35.484Z,8.80
2019-05-13T02:03:04.334Z,6.12
2019-05-13T02:05:34.021Z,5.78
2019-05-13T02:08:04.453Z,7.17
2019-05-13T02:10:54.437Z,7.83
2019-05-13T02:13:24.667Z,9.13
2019-05-13T02:15:55.186Z,7.35
2019-05-13T02:18:24.844Z,11.93
2019-05-13T02:20:55.460Z,7.40
2019-05-13T02:23:24.420Z,7.70
2019-05-13T02:25:54.413Z,9.03
2019-05-13T02:28:24.801Z,9.20
2019-05-13T02:30:55.750Z,10.78
2019-05-13T02:33:24.455Z,9.35
2019-05-13T02:35:53.640Z,7.72
2019-05-13T02:38:26.408Z,10.80
2019-05-13T02:40:53.647Z,8.80
2019-05-13T02:43:23.672Z,8.60
2019-05-13T02:45:54.106Z,12.37
2019-05-13T02:48:23.886Z,10.88
2019-05-13T02:50:54.080Z,9.83
2019-05-13T02:53:23.997Z,14.10
2019-05-13T02:55:53.802Z,12.78
2019-05-13T02:58:24.177Z,10.80
2019-05-13T03:00:53.802Z,13.05
2019-05-13T03:03:23.640Z,12.15
2019-05-13T03:05:53.419Z,10.60
2019-05-13T03:08:35.331Z,13.43
2019-05-13T03:10:53.790Z,12.28
2019-05-13T03:13:23.661Z,11.85
2019-05-13T03:16:13.211Z,14.55
2019-05-13T03:18:43.513Z,15.65
2019-05-13T03:21:13.123Z,12.55
2019-05-13T03:23:43.991Z,13.20
2019-05-13T03:26:13.030Z,10.65
2019-05-13T03:28:43.683Z,12.80
2019-05-13T03:31:17.211Z,11.20
2019-05-13T03:33:46.215Z,12.93
2019-05-13T03:36:16.235Z,11.75
2019-05-13T03:38:59.728Z,14.68
2019-05-13T03:41:17.966Z,14.85
2019-05-13T03:43:48.234Z,13.48
2019-05-13T03:46:23.070Z,14.45
2019-05-13T03:48:56.795Z,17.40
2019-05-13T03:51:25.484Z,15.95
2019-05-13T03:53:54.266Z,16.07
2019-05-13T03:56:23.888Z,15.03
2019-05-13T03:58:53.814Z,15.20
2019-05-13T04:01:23.166Z,20.25
2019-05-13T04:03:52.884Z,22.77
2019-05-13T04:06:23.221Z,17.20
2019-05-13T04:08:53.971Z,17.37
2019-05-13T04:11:23.466Z,18.48
2019-05-13T04:13:52.939Z,15.03
2019-05-13T04:16:23.624Z,17.12
2019-05-13T04:18:53.614Z,17.62
2019-05-13T04:21:23.293Z,20.95
2019-05-13T04:23:53.261Z,20.37
2019-05-13T04:26:23.642Z,17.35
2019-05-13T04:28:52.815Z,18.45
2019-05-13T04:31:22.923Z,17.80
2019-05-13T04:33:53.113Z,19.32
2019-05-13T04:36:23.638Z,19.85
2019-05-13T04:38:53.061Z,19.87
2019-05-13T04:41:23.205Z,21.93
2019-05-13T04:43:54.167Z,18.80
2019-05-13T04:46:23.091Z,20.70
2019-05-13T04:48:53.087Z,17.73
2019-05-13T04:51:22.815Z,19.20
2019-05-13T04:53:56.129Z,19.52
2019-05-13T04:56:22.571Z,19.73
2019-05-13T04:58:52.860Z,21.70
2019-05-13T05:01:55.335Z,21.07
2019-05-13T05:04:33.941Z,19.50
2019-05-13T05:07:15.742Z,18.82
2019-05-13T05:10:26.550Z,16.02
2019-05-13T05:13:05.714Z,16.40
2019-05-13T05:15:43.141Z,20.37
2019-05-13T05:18:37.320Z,18.40
2019-05-13T05:21:24.088Z,19.12
2019-05-13T05:24:12.191Z,20.17
2019-05-13T05:27:15.249Z,15.38
2019-05-13T05:30:21.836Z,16.87
2019-05-13T05:33:21.395Z,17.15
2019-05-13T05:36:05.162Z,14.63
2019-05-13T05:38:54.374Z,21.00
2019-05-13T05:41:24.950Z,13.68
2019-05-13T05:43:55.424Z,15.88
2019-05-13T05:46:24.953Z,15.75
2019-05-13T05:48:55.717Z,15.95
2019-05-13T05:51:25.333Z,14.07
2019-05-13T05:53:56.069Z,12.82
2019-05-13T05:56:26.729Z,13.25
2019-05-13T05:58:56.761Z,18.40
2019-05-13T06:01:25.361Z,13.93
2019-05-13T06:03:56.302Z,16.55
2019-05-13T06:06:24.765Z,13.68
2019-05-13T06:08:53.220Z,11.50
2019-05-13T06:11:22.352Z,16.02
2019-05-13T06:13:53.964Z,20.05
2019-05-13T06:16:21.883Z,10.38
2019-05-13T06:18:52.270Z,12.03
2019-05-13T06:21:21.611Z,16.32
2019-05-13T06:23:51.859Z,13.65
2019-05-13T06:26:23.622Z,14.40
2019-05-13T06:28:52.080Z,17.50
2019-05-13T06:31:21.528Z,11.38
2019-05-13T06:33:51.427Z,13.28
2019-05-13T06:36:22.168Z,12.82
2019-05-13T06:38:51.310Z,14.43
2019-05-13T06:41:22.000Z,15.25
2019-05-13T06:43:52.433Z,11.48
2019-05-13T06:46:21.865Z,15.38
2019-05-13T06:48:52.086Z,11.18
2019-05-13T06:51:22.203Z,11.38
2019-05-13T06:53:51.780Z,14.55
2019-05-13T06:56:21.758Z,9.45
2019-05-13T06:58:52.031Z,11.57
2019-05-13T07:01:21.731Z,10.72
2019-05-13T07:03:51.812Z,12.05
2019-05-13T07:06:21.670Z,8.85
2019-05-13T07:08:52.121Z,10.95
2019-05-13T07:11:24.140Z,9.30
2019-05-13T07:13:51.814Z,10.45
2019-05-13T07:16:22.351Z,14.60
2019-05-13T07:18:52.297Z,10.95
2019-05-13T07:21:22.859Z,12.03
2019-05-13T07:23:54.709Z,8.43
2019-05-13T07:26:22.154Z,12.78
2019-05-13T07:28:52.384Z,12.20
2019-05-13T07:31:21.913Z,12.70
2019-05-13T07:33:51.750Z,10.72
2019-05-13T07:36:22.546Z,10.70
2019-05-13T07:38:52.142Z,11.50
2019-05-13T07:41:35.216Z,10.70
2019-05-13T07:43:51.777Z,10.88
2019-05-13T07:46:21.755Z,13.30
2019-05-13T07:48:52.076Z,14.25
2019-05-13T07:51:22.188Z,11.33
2019-05-13T07:53:51.767Z,10.95
2019-05-13T07:56:21.837Z,9.00
2019-05-13T07:58:52.318Z,13.10
2019-05-13T08:01:22.076Z,14.70
2019-05-13T08:03:51.714Z,11.85
2019-05-13T08:06:21.941Z,8.70
2019-05-13T08:08:52.317Z,8.30
2019-05-13T08:11:22.389Z,16.02
2019-05-13T08:13:51.917Z,7.35
2019-05-13T08:16:22.362Z,9.33
2019-05-13T08:18:52.394Z,11.25
2019-05-13T08:21:21.566Z,8.53
2019-05-13T08:23:52.445Z,5.60
2019-05-13T08:26:21.703Z,7.85
2019-05-13T08:29:00.235Z,15.98
2019-05-13T08:31:21.657Z,9.45
2019-05-13T08:33:51.926Z,13.88
2019-05-13T08:36:23.308Z,7.08
2019-05-13T08:38:51.975Z,9.68
2019-05-13T08:41:23.466Z,7.92
2019-05-13T08:43:52.422Z,11.43
2019-05-13T08:46:21.824Z,10.13
2019-05-13T08:48:51.796Z,7.67
2019-05-13T08:51:22.058Z,10.95
2019-05-13T08:53:51.673Z,9.90
2019-05-13T08:56:21.803Z,10.03
2019-05-13T08:58:52.127Z,8.83
2019-05-13T09:01:22.731Z,11.28
2019-05-13T09:03:52.262Z,8.78
2019-05-13T09:06:22.086Z,7.87
2019-05-13T09:08:53.761Z,9.90
2019-05-13T09:11:22.246Z,11.65
2019-05-13T09:13:51.627Z,9.73
2019-05-13T09:16:21.463Z,12.23
2019-05-13T09:18:52.126Z,12.10
2019-05-13T09:21:22.498Z,13.38
2019-05-13T09:23:51.603Z,8.98
2019-05-13T09:26:22.543Z,8.00
2019-05-13T09:28:52.145Z,14.30
2019-05-13T09:31:22.109Z,8.78
2019-05-13T09:33:52.094Z,11.20
2019-05-13T09:36:21.766Z,8.55
2019-05-13T09:38:52.543Z,6.72
2019-05-13T09:41:21.538Z,7.33
2019-05-13T09:43:51.419Z,6.90
2019-05-13T09:46:22.375Z,6.40
2019-05-13T09:48:51.674Z,6.67
2019-05-13T09:51:21.644Z,8.13
2019-05-13T09:53:51.953Z,7.45
2019-05-13T09:56:22.364Z,6.60
2019-05-13T09:58:51.393Z,4.45
2019-05-13T10:01:22.558Z,6.67
2019-05-13T10:03:54.770Z,5.55
2019-05-13T10:06:22.233Z,5.10
2019-05-13T10:08:52.724Z,6.33
2019-05-13T10:11:21.844Z,8.18
2019-05-13T10:13:51.606Z,8.30
2019-05-13T10:16:22.077Z,10.03
2019-05-13T10:18:52.435Z,9.65
2019-05-13T10:21:21.834Z,13.18
2019-05-13T10:23:52.285Z,6.75
2019-05-13T10:26:22.624Z,10.50
2019-05-13T10:28:51.544Z,7.58
2019-05-13T10:31:22.012Z,7.60
2019-05-13T10:33:51.572Z,11.97
2019-05-13T10:36:22.275Z,8.20
2019-05-13T10:38:52.148Z,8.88
2019-05-13T10:41:22.210Z,6.60
2019-05-13T10:43:52.004Z,7.35
2019-05-13T10:46:22.074Z,7.42
2019-05-13T10:48:52.605Z,9.45
2019-05-13T10:51:23.964Z,7.10
2019-05-13T10:53:53.483Z,8.03
2019-05-13T10:56:22.880Z,8.03
2019-05-13T10:58:53.352Z,7.12
2019-05-13T11:01:22.697Z,9.00
2019-05-13T11:03:52.395Z,6.25
2019-05-13T11:06:21.883Z,5.70
2019-05-13T11:08:53.158Z,8.18
2019-05-13T11:11:22.092Z,6.00
2019-05-13T11:13:58.769Z,9.05
2019-05-13T11:16:22.571Z,5.67
2019-05-13T11:18:51.898Z,8.03
2019-05-13T11:21:22.218Z,4.42
2019-05-13T11:23:51.828Z,7.05
2019-05-13T11:26:21.974Z,6.90
2019-05-13T11:28:52.295Z,6.62
2019-05-13T11:31:22.354Z,8.10
2019-05-13T11:33:52.116Z,5.03
2019-05-13T11:36:23.267Z,9.63
2019-05-13T11:38:53.140Z,7.42
2019-05-13T11:41:22.947Z,6.20
2019-05-13T11:44:09.216Z,6.97
2019-05-13T11:46:22.730Z,4.35
2019-05-13T11:48:52.118Z,5.90
2019-05-13T11:51:24.220Z,5.35
2019-05-13T11:53:52.507Z,4.90
2019-05-13T11:56:22.999Z,7.22
2019-05-13T11:58:53.289Z,3.58
2019-05-13T12:01:22.935Z,3.75
2019-05-13T12:03:53.060Z,5.72
2019-05-13T12:06:23.288Z,8.15
2019-05-13T12:08:55.296Z,12.98
2019-05-13T12:11:22.944Z,8.00
2019-05-13T12:13:52.741Z,6.00
2019-05-13T12:16:22.849Z,4.03
2019-05-13T12:18:52.843Z,7.67
2019-05-13T12:21:21.726Z,5.78
2019-05-13T12:23:52.772Z,3.40
2019-05-13T12:26:23.437Z,6.70
2019-05-13T12:28:53.589Z,6.12
2019-05-13T12:31:22.203Z,10.25
2019-05-13T12:33:52.206Z,8.65
2019-05-13T12:36:23.496Z,5.72
2019-05-13T12:38:53.925Z,5.57
2019-05-13T12:41:23.203Z,7.75
2019-05-13T12:43:54.064Z,7.12
2019-05-13T12:46:24.703Z,7.17
2019-05-13T12:48:52.481Z,6.62
2019-05-13T12:51:22.643Z,7.58
2019-05-13T12:53:52.882Z,12.50
2019-05-13T12:56:23.590Z,8.65
2019-05-13T12:58:52.445Z,5.97
2019-05-13T13:01:23.838Z,6.75
2019-05-13T13:03:52.033Z,5.28
2019-05-13T13:06:30.357Z,8.00
2019-05-13T13:08:51.008Z,5.35
2019-05-13T13:11:22.784Z,10.75
2019-05-13T13:13:58.989Z,9.23
2019-05-13T13:16:21.275Z,6.85
2019-05-13T13:18:52.154Z,8.18
2019-05-13T13:21:23.601Z,9.38
2019-05-13T13:23:51.633Z,7.40
2019-05-13T13:26:21.804Z,7.92
2019-05-13T13:28:55.118Z,7.62
2019-05-13T13:31:25.094Z,6.55
2019-05-13T13:33:55.139Z,7.62
2019-05-13T13:36:24.137Z,6.20
2019-05-13T13:38:56.257Z,9.65
2019-05-13T13:41:23.416Z,10.80
2019-05-13T13:43:53.848Z,7.65
2019-05-13T13:46:35.983Z,9.13
2019-05-13T13:48:55.195Z,6.08
2019-05-13T13:51:26.565Z,7.10
2019-05-13T13:53:56.515Z,6.65
2019-05-13T13:56:25.644Z,11.38
2019-05-13T13:58:54.279Z,7.53
2019-05-13T14:01:27.311Z,7.62
2019-05-13T14:03:53.340Z,10.72
2019-05-13T14:07:22.767Z,8.25
2019-05-13T14:08:52.261Z,7.60
2019-05-13T14:11:23.176Z,9.30
2019-05-13T14:13:51.852Z,9.45
2019-05-13T14:16:29.602Z,7.30
2019-05-13T14:18:52.317Z,8.15
2019-05-13T14:21:21.798Z,6.08
2019-05-13T14:23:52.076Z,6.17
2019-05-13T14:26:22.190Z,11.25
2019-05-13T14:28:53.675Z,8.38
2019-05-13T14:31:21.671Z,10.45
2019-05-13T14:33:52.074Z,7.30
2019-05-13T14:36:23.054Z,6.95
2019-05-13T14:38:52.656Z,9.25
2019-05-13T14:41:22.038Z,8.73
2019-05-13T14:43:51.710Z,10.65
2019-05-13T14:46:27.094Z,6.58
2019-05-13T14:48:50.929Z,5.10
2019-05-13T14:51:21.727Z,6.05
2019-05-13T14:53:51.777Z,8.58
2019-05-13T14:56:22.172Z,8.20
2019-05-13T14:58:52.126Z,6.37
2019-05-13T15:01:22.788Z,8.23
2019-05-13T15:03:52.838Z,9.23
2019-05-13T15:06:22.214Z,10.68
2019-05-13T15:08:52.632Z,12.93
2019-05-13T15:11:22.059Z,7.28
2019-05-13T15:13:51.799Z,7.30
2019-05-13T15:16:22.382Z,8.00
2019-05-13T15:18:52.511Z,6.85
2019-05-13T15:21:21.463Z,8.35
2019-05-13T15:23:51.719Z,7.30
2019-05-13T15:26:22.195Z,8.93
2019-05-13T15:28:51.864Z,7.97
2019-05-13T15:31:22.336Z,12.73
2019-05-13T15:33:52.352Z,9.10
2019-05-13T15:36:22.521Z,6.55
2019-05-13T15:38:51.946Z,6.67
2019-05-13T15:41:21.130Z,5.72
2019-05-13T15:43:51.949Z,7.10
2019-05-13T15:46:21.970Z,6.97
2019-05-13T15:48:51.442Z,9.15
2019-05-13T15:51:22.143Z,6.72
2019-05-13T15:53:51.726Z,7.25
2019-05-13T15:56:22.453Z,8.70
2019-05-13T15:58:52.968Z,10.98
2019-05-13T16:01:22.906Z,6.45
2019-05-13T16:03:52.504Z,8.38
2019-05-13T16:06:21.318Z,6.83
2019-05-13T16:08:51.882Z,8.33
2019-05-13T16:11:21.922Z,6.25
2019-05-13T16:13:51.774Z,5.20
2019-05-13T16:16:22.005Z,8.55
2019-05-13T16:18:51.529Z,7.78
2019-05-13T16:21:20.530Z,6.85
2019-05-13T16:23:49.063Z,5.65
2019-05-13T16:26:19.348Z,6.10
2019-05-13T16:28:47.978Z,10.28
2019-05-13T16:31:16.601Z,7.60
2019-05-13T16:33:45.377Z,10.18
2019-05-13T16:36:13.992Z,7.42
2019-05-13T16:38:42.562Z,8.15
2019-05-13T16:41:12.521Z,9.15
2019-05-13T16:43:42.546Z,7.45
2019-05-13T16:46:12.125Z,9.35
2019-05-13T16:48:41.754Z,6.75
2019-05-13T16:51:12.480Z,5.78
2019-05-13T16:53:42.125Z,6.08
2019-05-13T16:56:25.688Z,6.45
2019-05-13T16:58:41.966Z,6.50
2019-05-13T17:01:11.680Z,8.50
2019-05-13T17:03:41.399Z,5.80
2019-05-13T17:06:12.520Z,7.33
2019-05-13T17:08:42.396Z,5.45
2019-05-13T17:11:11.887Z,4.45
2019-05-13T17:13:42.151Z,6.10
2019-05-13T17:16:11.002Z,5.03
2019-05-13T17:18:41.743Z,6.50
2019-05-13T17:21:10.352Z,7.28
2019-05-13T17:23:38.893Z,5.22
2019-05-13T17:26:07.849Z,9.65
2019-05-13T17:28:38.009Z,6.53
2019-05-13T17:31:06.879Z,5.17
2019-05-13T17:33:35.586Z,7.03
2019-05-13T17:36:04.173Z,6.65
2019-05-13T17:38:32.814Z,7.78
2019-05-13T17:41:02.560Z,7.83
2019-05-13T17:43:32.029Z,5.08
2019-05-13T17:46:01.666Z,9.13
2019-05-13T17:48:32.799Z,7.25
2019-05-13T17:51:01.417Z,6.28
2019-05-13T17:53:32.273Z,4.37
2019-05-13T17:56:02.365Z,4.72
2019-05-13T17:58:31.385Z,8.85
2019-05-13T18:01:01.906Z,9.20
2019-05-13T18:03:32.122Z,6.22
2019-05-13T18:06:02.515Z,6.03
2019-05-13T18:08:32.068Z,4.78
2019-05-13T18:11:02.392Z,6.67
2019-05-13T18:13:31.822Z,8.23
2019-05-13T18:16:02.410Z,7.25
2019-05-13T18:18:40.589Z,6.85
2019-05-13T18:21:01.783Z,4.08
2019-05-13T18:23:30.362Z,5.97
2019-05-13T18:26:01.727Z,5.72
2019-05-13T18:28:31.418Z,8.88
2019-05-13T18:31:01.726Z,6.67
2019-05-13T18:33:31.979Z,6.25
2019-05-13T18:36:01.945Z,7.30
2019-05-13T18:38:31.279Z,5.12
2019-05-13T18:41:01.691Z,4.62
2019-05-13T18:43:32.163Z,7.95
2019-05-13T18:46:02.074Z,9.75
2019-05-13T18:48:32.279Z,5.55
2019-05-13T18:51:01.494Z,6.15
2019-05-13T18:53:32.083Z,7.17
2019-05-13T18:56:01.989Z,6.60
2019-05-13T18:58:31.626Z,7.08
2019-05-13T19:01:01.473Z,9.55
2019-05-13T19:03:32.196Z,4.42
2019-05-13T19:06:00.391Z,6.85
2019-05-13T19:08:28.852Z,7.10
2019-05-13T19:10:58.022Z,8.23
2019-05-13T19:13:26.551Z,4.08
2019-05-13T19:15:55.161Z,6.60
2019-05-13T19:18:23.840Z,6.47
2019-05-13T19:20:52.446Z,6.15
2019-05-13T19:23:21.061Z,9.03
2019-05-13T19:25:51.368Z,5.37
2019-05-13T19:28:22.128Z,5.53
2019-05-13T19:30:51.571Z,6.62
2019-05-13T19:33:22.078Z,5.40
2019-05-13T19:35:51.845Z,6.33
2019-05-13T19:38:21.211Z,4.47
2019-05-13T19:40:50.220Z,4.95
2019-05-13T19:43:18.705Z,6.45
2019-05-13T19:45:47.275Z,5.92
2019-05-13T19:48:15.786Z,8.08
2019-05-13T19:50:44.476Z,5.70
2019-05-13T19:53:13.007Z,4.45
2019-05-13T19:55:41.706Z,6.15
2019-05-13T19:58:12.467Z,3.55
2019-05-13T20:00:42.399Z,2.72
2019-05-13T20:03:12.069Z,8.23
2019-05-13T20:05:41.524Z,4.28
2019-05-13T20:08:10.316Z,4.10
2019-05-13T20:10:39.089Z,2.90
2019-05-13T20:13:07.562Z,4.62
2019-05-13T20:15:36.071Z,4.22
2019-05-13T20:18:04.724Z,4.28
2019-05-13T20:20:34.381Z,5.30
2019-05-13T20:23:02.921Z,5.67
2019-05-13T20:25:31.427Z,4.47
2019-05-13T20:28:02.144Z,5.95
2019-05-13T20:30:30.429Z,4.92
2019-05-13T20:32:59.146Z,5.25
2019-05-13T20:35:27.610Z,4.12
2019-05-13T20:37:56.147Z,4.58
2019-05-13T20:40:24.773Z,3.80
2019-05-13T20:42:53.347Z,3.83
2019-05-13T20:45:22.414Z,4.58
2019-05-13T20:47:51.221Z,8.48
2019-05-13T20:50:21.718Z,5.47
2019-05-13T20:52:51.632Z,5.37
2019-05-13T20:55:22.063Z,4.90
2019-05-13T20:57:53.116Z,4.85
2019-05-13T21:00:21.434Z,5.50
2019-05-13T21:02:51.728Z,5.90
2019-05-13T21:05:21.717Z,6.58
2019-05-13T21:07:51.564Z,4.87
2019-05-13T21:10:21.675Z,8.28
2019-05-13T21:12:51.436Z,5.17
2019-05-13T21:15:20.220Z,5.22
2019-05-13T21:17:48.906Z,4.15
2019-05-13T21:20:22.038Z,8.90
2019-05-13T21:22:48.075Z,5.15
2019-05-13T21:25:16.870Z,6.12
2019-05-13T21:27:45.452Z,7.00
2019-05-13T21:30:14.502Z,8.58
2019-05-13T21:32:43.346Z,7.50
2019-05-13T21:35:12.152Z,7.75
2019-05-13T21:37:40.636Z,5.47
2019-05-13T21:40:11.195Z,7.95
2019-05-13T21:42:41.987Z,7.95
2019-05-13T21:45:11.225Z,7.00
2019-05-13T21:47:40.156Z,8.80
2019-05-13T21:50:11.323Z,6.42
2019-05-13T21:52:41.860Z,8.43
2019-05-13T21:55:11.378Z,8.50
2019-05-13T21:57:41.543Z,8.08
2019-05-13T22:00:13.170Z,8.33
2019-05-13T22:02:41.666Z,8.83
2019-05-13T22:05:11.648Z,8.35
2019-05-13T22:07:42.126Z,10.13
2019-05-13T22:10:11.079Z,9.10
2019-05-13T22:12:41.500Z,8.30
2019-05-13T22:15:10.268Z,8.28
2019-05-13T22:17:38.732Z,7.95
2019-05-13T22:20:08.121Z,6.95
2019-05-13T22:22:36.673Z,6.62
2019-05-13T22:25:07.523Z,7.87
2019-05-13T22:27:36.082Z,7.22
2019-05-13T22:30:06.580Z,7.40
2019-05-13T22:32:35.258Z,6.37
2019-05-13T22:35:04.561Z,12.15
2019-05-13T22:37:33.047Z,8.05
2019-05-13T22:40:04.111Z,9.43
2019-05-13T22:42:32.332Z,8.80
2019-05-13T22:45:02.824Z,7.80
2019-05-13T22:47:31.571Z,7.12
2019-05-13T22:50:02.077Z,7.87
2019-05-13T22:52:31.285Z,6.45
2019-05-13T22:55:02.369Z,8.68
2019-05-13T22:57:31.346Z,8.73
2019-05-13T23:00:00.061Z,7.40
2019-05-13T23:02:28.826Z,10.90
2019-05-13T23:04:57.547Z,7.10
2019-05-13T23:07:26.101Z,7.67
2019-05-13T23:09:54.879Z,9.88
2019-05-13T23:12:24.580Z,9.18
2019-05-13T23:14:53.035Z,10.23
2019-05-13T23:17:21.730Z,9.33
2019-05-13T23:19:52.157Z,8.55
2019-05-13T23:22:20.574Z,8.53
2019-05-13T23:24:49.269Z,11.68
2019-05-13T23:27:17.762Z,7.15
2019-05-13T23:29:46.280Z,10.03
2019-05-13T23:32:14.924Z,7.60
2019-05-13T23:34:43.402Z,8.15
2019-05-13T23:37:12.006Z,11.40
2019-05-13T23:39:41.656Z,11.40
2019-05-13T23:42:12.175Z,7.83
2019-05-13T23:44:41.574Z,5.95
2019-05-13T23:47:11.427Z,7.55
2019-05-13T23:49:42.171Z,10.85
2019-05-13T23:52:11.682Z,11.40
2019-05-13T23:54:42.411Z,7.97
2019-05-13T23:57:11.770Z,8.40
2019-05-13T23:59:42.011Z,6.50
